createdAt,value
2018-07-10T00:04:14.690Z,2.07
2018-07-10T00:06:58.182Z,2.10
2018-07-10T00:09:48.908Z,2.00
2018-07-10T00:12:17.263Z,2.17
2018-07-10T00:14:45.465Z,1.80
2018-07-10T00:17:13.788Z,2.20
2018-07-10T00:19:42.062Z,1.80
2018-07-10T00:22:10.395Z,2.20
2018-07-10T00:24:38.652Z,2.20
2018-07-10T00:27:06.973Z,2.00
2018-07-10T00:29:35.226Z,2.10
2018-07-10T00:32:03.515Z,2.00
2018-07-10T00:34:31.797Z,2.10
2018-07-10T00:37:00.118Z,1.97
2018-07-10T00:39:28.413Z,2.20
2018-07-10T00:41:56.645Z,1.80
2018-07-10T00:44:24.966Z,1.90
2018-07-10T00:46:53.185Z,2.03
2018-07-10T00:49:21.441Z,1.90
2018-07-10T00:51:49.726Z,2.10
2018-07-10T00:54:17.956Z,2.07
2018-07-10T00:56:46.331Z,2.20
2018-07-10T00:59:14.598Z,1.83
2018-07-10T01:01:42.848Z,2.10
2018-07-10T01:04:11.084Z,1.87
2018-07-10T01:06:39.397Z,1.80
2018-07-10T01:09:12.460Z,1.93
2018-07-10T01:11:41.080Z,1.80
2018-07-10T01:14:09.344Z,2.07
2018-07-10T01:16:38.599Z,1.90
2018-07-10T01:19:16.143Z,2.03
2018-07-10T01:21:45.609Z,1.93
2018-07-10T01:24:16.606Z,1.77
2018-07-10T01:26:44.925Z,1.97
2018-07-10T01:29:20.836Z,1.90
2018-07-10T01:31:51.465Z,2.20
2018-07-10T01:34:19.704Z,2.10
2018-07-10T01:36:47.980Z,1.87
2018-07-10T01:39:16.330Z,1.90
2018-07-10T01:41:44.598Z,2.03
2018-07-10T01:44:12.837Z,1.83
2018-07-10T01:46:41.143Z,2.03
2018-07-10T01:49:09.434Z,1.80
2018-07-10T01:51:37.689Z,1.70
2018-07-10T01:54:05.979Z,2.40
2018-07-10T01:56:34.241Z,1.90
2018-07-10T01:59:02.781Z,1.80
2018-07-10T02:01:31.087Z,1.83
2018-07-10T02:04:00.505Z,1.83
2018-07-10T02:06:29.261Z,1.60
2018-07-10T02:08:57.969Z,1.80
2018-07-10T02:11:26.233Z,1.70
2018-07-10T02:13:54.635Z,2.13
2018-07-10T02:16:22.858Z,2.03
2018-07-10T02:18:51.310Z,1.90
2018-07-10T02:21:19.584Z,1.77
2018-07-10T02:23:47.856Z,1.97
2018-07-10T02:26:22.873Z,2.20
2018-07-10T02:28:52.197Z,1.80
2018-07-10T02:31:20.501Z,1.90
2018-07-10T02:33:49.077Z,1.70
2018-07-10T02:36:17.751Z,1.70
2018-07-10T02:38:48.212Z,1.87
2018-07-10T02:41:18.605Z,2.07
2018-07-10T02:44:01.608Z,1.70
2018-07-10T02:46:32.841Z,2.13
2018-07-10T02:49:21.564Z,1.93
2018-07-10T02:51:55.972Z,2.30
2018-07-10T02:54:26.717Z,1.90
2018-07-10T02:56:56.716Z,1.90
2018-07-10T02:59:26.511Z,1.90
2018-07-10T03:01:54.822Z,1.93
2018-07-10T03:04:23.076Z,2.20
2018-07-10T03:06:51.357Z,2.10
2018-07-10T03:09:19.873Z,1.70
2018-07-10T03:11:48.132Z,2.00
2018-07-10T03:14:16.098Z,1.67
2018-07-10T03:16:44.541Z,2.23
2018-07-10T03:19:12.782Z,1.70
2018-07-10T03:21:41.072Z,1.80
2018-07-10T03:24:09.737Z,1.80
2018-07-10T03:26:38.042Z,2.20
2018-07-10T03:29:06.446Z,2.30
2018-07-10T03:31:34.676Z,2.10
2018-07-10T03:34:02.957Z,1.80
2018-07-10T03:36:31.260Z,1.90
2018-07-10T03:38:59.674Z,1.83
2018-07-10T03:41:27.915Z,1.90
2018-07-10T03:43:56.185Z,2.00
2018-07-10T03:46:24.496Z,1.80
2018-07-10T03:48:52.749Z,1.80
2018-07-10T03:51:21.023Z,1.90
2018-07-10T03:53:49.664Z,1.80
2018-07-10T03:56:18.333Z,2.30
2018-07-10T03:58:47.753Z,1.80
2018-07-10T04:01:16.061Z,2.10
2018-07-10T04:03:44.293Z,1.60
2018-07-10T04:06:12.557Z,1.73
2018-07-10T04:08:40.849Z,1.77
2018-07-10T04:11:09.100Z,1.70
2018-07-10T04:13:38.373Z,1.57
2018-07-10T04:16:06.621Z,1.80
2018-07-10T04:18:36.149Z,1.90
2018-07-10T04:21:12.805Z,2.10
2018-07-10T04:23:41.884Z,1.60
2018-07-10T04:26:14.817Z,1.90
2018-07-10T04:28:43.100Z,2.13
2018-07-10T04:31:17.116Z,1.90
2018-07-10T04:33:47.529Z,1.80
2018-07-10T04:36:16.085Z,2.00
2018-07-10T04:38:46.389Z,2.00
2018-07-10T04:41:19.037Z,1.70
2018-07-10T04:43:52.621Z,1.80
2018-07-10T04:46:22.666Z,1.80
2018-07-10T04:48:57.733Z,1.70
2018-07-10T04:51:33.336Z,1.90
2018-07-10T04:54:30.029Z,1.80
2018-07-10T04:57:08.792Z,1.70
2018-07-10T04:59:37.368Z,1.83
2018-07-10T05:02:06.363Z,1.73
2018-07-10T05:04:34.883Z,1.70
2018-07-10T05:07:07.141Z,1.80
2018-07-10T05:09:36.439Z,1.80
2018-07-10T05:12:05.301Z,1.90
2018-07-10T05:14:33.729Z,2.00
2018-07-10T05:17:02.501Z,1.90
2018-07-10T05:19:30.826Z,2.00
2018-07-10T05:21:59.089Z,2.07
2018-07-10T05:24:27.372Z,2.10
2018-07-10T05:26:55.644Z,2.33
2018-07-10T05:29:23.962Z,3.37
2018-07-10T05:31:52.438Z,2.47
2018-07-10T05:34:20.693Z,2.10
2018-07-10T05:36:49.595Z,2.50
2018-07-10T05:39:17.844Z,2.17
2018-07-10T05:41:47.449Z,2.10
2018-07-10T05:44:22.192Z,2.10
2018-07-10T05:46:50.666Z,3.03
2018-07-10T05:49:18.941Z,2.10
2018-07-10T05:51:49.082Z,1.90
2018-07-10T05:54:17.356Z,1.83
2018-07-10T05:56:45.600Z,1.73
2018-07-10T05:59:13.835Z,2.63
2018-07-10T06:01:42.550Z,2.27
2018-07-10T06:04:14.526Z,2.30
2018-07-10T06:06:42.903Z,1.90
2018-07-10T06:09:11.242Z,2.20
2018-07-10T06:11:39.224Z,2.27
2018-07-10T06:14:07.511Z,2.00
2018-07-10T06:16:37.404Z,2.03
2018-07-10T06:19:05.661Z,4.20
2018-07-10T06:21:44.760Z,4.23
2018-07-10T06:24:16.003Z,2.03
2018-07-10T06:26:45.065Z,1.80
2018-07-10T06:29:20.653Z,2.93
2018-07-10T06:31:50.768Z,3.47
2018-07-10T06:34:20.536Z,2.40
2018-07-10T06:36:58.220Z,1.90
2018-07-10T06:39:26.594Z,2.60
2018-07-10T06:42:02.112Z,2.23
2018-07-10T06:44:30.394Z,2.10
2018-07-10T06:47:00.136Z,3.97
2018-07-10T06:49:29.923Z,2.00
2018-07-10T06:52:07.171Z,1.97
2018-07-10T06:54:52.228Z,1.90
2018-07-10T06:57:28.266Z,3.60
2018-07-10T06:59:56.821Z,3.80
2018-07-10T07:05:00.329Z,2.37
2018-07-10T07:07:28.918Z,4.80
2018-07-10T07:09:57.245Z,2.00
2018-07-10T07:12:25.493Z,2.50
2018-07-10T07:14:53.736Z,2.63
2018-07-10T07:17:22.164Z,5.67
2018-07-10T07:19:50.421Z,2.40
2018-07-10T07:22:18.681Z,2.10
2018-07-10T07:24:46.946Z,2.27
2018-07-10T07:27:15.175Z,5.47
2018-07-10T07:29:43.428Z,2.30
2018-07-10T07:32:11.861Z,4.50
2018-07-10T07:34:40.148Z,3.40
2018-07-10T07:37:08.565Z,3.03
2018-07-10T07:39:37.079Z,2.33
2018-07-10T07:42:05.793Z,4.47
2018-07-10T07:44:34.094Z,2.60
2018-07-10T07:47:02.375Z,3.70
2018-07-10T07:49:31.518Z,2.40
2018-07-10T07:52:00.149Z,4.43
2018-07-10T07:54:28.613Z,3.97
2018-07-10T07:56:56.888Z,2.50
2018-07-10T07:59:25.149Z,2.97
2018-07-10T08:01:53.461Z,7.57
2018-07-10T08:04:21.721Z,2.87
2018-07-10T08:06:50.006Z,4.20
2018-07-10T08:09:18.294Z,5.77
2018-07-10T08:11:46.637Z,2.87
2018-07-10T08:14:17.196Z,2.60
2018-07-10T08:16:45.814Z,4.33
2018-07-10T08:19:15.017Z,2.60
2018-07-10T08:21:46.171Z,3.97
2018-07-10T08:24:14.530Z,6.57
2018-07-10T08:26:42.540Z,4.67
2018-07-10T08:29:11.920Z,7.10
2018-07-10T08:31:40.973Z,4.33
2018-07-10T08:34:09.613Z,4.53
2018-07-10T08:36:37.902Z,2.87
2018-07-10T08:39:06.169Z,2.40
2018-07-10T08:41:40.013Z,3.30
2018-07-10T08:44:08.250Z,4.30
2018-07-10T08:46:36.569Z,4.33
2018-07-10T08:49:05.155Z,4.00
2018-07-10T08:51:33.452Z,3.40
2018-07-10T08:54:01.817Z,5.57
2018-07-10T08:56:30.104Z,4.83
2018-07-10T08:58:58.704Z,3.80
2018-07-10T09:01:28.176Z,2.93
2018-07-10T09:03:56.312Z,3.47
2018-07-10T09:06:24.624Z,4.90
2018-07-10T09:08:52.905Z,2.97
2018-07-10T09:11:21.176Z,2.83
2018-07-10T09:13:49.479Z,2.80
2018-07-10T09:16:17.747Z,3.20
2018-07-10T09:18:46.040Z,3.50
2018-07-10T09:21:14.044Z,4.70
2018-07-10T09:23:42.326Z,3.93
2018-07-10T09:26:10.577Z,2.97
2018-07-10T09:28:38.960Z,3.63
2018-07-10T09:31:07.554Z,4.17
2018-07-10T09:33:36.361Z,2.80
2018-07-10T09:36:05.272Z,3.67
2018-07-10T09:38:34.400Z,2.93
2018-07-10T09:41:02.995Z,4.20
2018-07-10T09:43:31.447Z,3.80
2018-07-10T09:46:00.016Z,4.00
2018-07-10T09:48:28.248Z,5.70
2018-07-10T09:50:56.533Z,5.97
2018-07-10T09:53:24.775Z,5.83
2018-07-10T09:55:53.045Z,3.70
2018-07-10T09:58:22.261Z,3.20
2018-07-10T10:00:58.126Z,3.80
2018-07-10T10:03:26.423Z,7.37
2018-07-10T10:05:54.669Z,7.30
2018-07-10T10:08:22.968Z,6.03
2018-07-10T10:10:51.161Z,4.20
2018-07-10T10:13:19.438Z,2.93
2018-07-10T10:15:47.761Z,5.80
2018-07-10T10:18:16.021Z,6.03
2018-07-10T10:20:44.303Z,5.07
2018-07-10T10:23:13.398Z,3.63
2018-07-10T10:25:50.286Z,5.00
2018-07-10T10:28:21.269Z,4.77
2018-07-10T10:30:49.503Z,6.50
2018-07-10T10:33:17.764Z,3.47
2018-07-10T10:35:46.100Z,5.50
2018-07-10T10:38:14.684Z,4.40
2018-07-10T10:40:42.926Z,4.67
2018-07-10T10:43:12.368Z,6.60
2018-07-10T10:45:42.822Z,4.77
2018-07-10T10:48:12.717Z,4.00
2018-07-10T10:50:43.543Z,5.10
2018-07-10T10:53:11.809Z,4.30
2018-07-10T10:55:40.041Z,4.93
2018-07-10T10:58:08.315Z,6.07
2018-07-10T11:00:36.606Z,4.20
2018-07-10T11:03:04.859Z,5.20
2018-07-10T11:05:33.571Z,5.53
2018-07-10T11:08:02.050Z,4.30
2018-07-10T11:10:30.737Z,4.93
2018-07-10T11:12:59.161Z,5.90
2018-07-10T11:15:27.411Z,5.33
2018-07-10T11:18:04.814Z,4.90
2018-07-10T11:20:53.721Z,4.67
2018-07-10T11:23:31.310Z,4.50
2018-07-10T11:26:07.247Z,4.00
2018-07-10T11:28:35.491Z,4.10
2018-07-10T11:31:03.776Z,4.87
2018-07-10T11:33:32.037Z,4.57
2018-07-10T11:36:00.292Z,3.93
2018-07-10T11:38:28.546Z,5.13
2018-07-10T11:40:56.821Z,4.20
2018-07-10T11:43:25.084Z,5.67
2018-07-10T11:45:53.345Z,6.30
2018-07-10T11:48:21.575Z,4.17
2018-07-10T11:50:49.846Z,6.70
2018-07-10T11:53:18.081Z,4.80
2018-07-10T11:55:46.577Z,4.63
2018-07-10T11:58:14.848Z,4.93
2018-07-10T12:00:43.260Z,5.23
2018-07-10T12:03:11.541Z,6.80
2018-07-10T12:05:40.947Z,4.17
2018-07-10T12:08:09.243Z,6.67
2018-07-10T12:10:38.279Z,4.60
2018-07-10T12:13:06.824Z,6.03
2018-07-10T12:15:35.145Z,6.00
2018-07-10T12:18:03.373Z,5.97
2018-07-10T12:20:34.809Z,3.83
2018-07-10T12:23:04.441Z,4.17
2018-07-10T12:25:34.823Z,4.40
2018-07-10T12:28:03.754Z,6.30
2018-07-10T12:30:32.057Z,5.70
2018-07-10T12:33:00.541Z,5.03
2018-07-10T12:35:29.681Z,5.80
2018-07-10T12:37:59.664Z,4.10
2018-07-10T12:40:27.941Z,4.10
2018-07-10T12:42:56.262Z,5.20
2018-07-10T12:45:25.034Z,3.80
2018-07-10T12:47:53.273Z,5.13
2018-07-10T12:50:21.537Z,4.73
2018-07-10T12:52:49.836Z,4.23
2018-07-10T12:55:19.474Z,5.10
2018-07-10T12:57:48.528Z,5.17
2018-07-10T13:00:16.789Z,5.33
2018-07-10T13:02:48.596Z,5.33
2018-07-10T13:05:18.242Z,4.60
2018-07-10T13:07:46.782Z,5.20
2018-07-10T13:10:15.296Z,4.30
2018-07-10T13:12:43.925Z,3.67
2018-07-10T13:15:12.368Z,4.60
2018-07-10T13:17:42.388Z,5.00
2018-07-10T13:20:10.641Z,4.70
2018-07-10T13:22:38.920Z,3.87
2018-07-10T13:25:07.358Z,4.57
2018-07-10T13:27:35.689Z,4.90
2018-07-10T13:30:04.420Z,5.07
2018-07-10T13:32:32.641Z,4.63
2018-07-10T13:35:00.966Z,3.80
2018-07-10T13:37:29.728Z,4.50
2018-07-10T13:40:02.823Z,4.10
2018-07-10T13:43:05.496Z,4.17
2018-07-10T13:45:33.905Z,3.70
2018-07-10T13:48:02.148Z,4.07
2018-07-10T13:50:32.320Z,3.80
2018-07-10T13:53:01.568Z,3.77
2018-07-10T13:55:30.341Z,3.60
2018-07-10T13:58:04.586Z,3.80
2018-07-10T14:00:35.205Z,3.97
2018-07-10T14:03:03.413Z,3.77
2018-07-10T14:05:31.717Z,4.23
2018-07-10T14:07:59.964Z,3.77
2018-07-10T14:10:28.205Z,4.00
2018-07-10T14:12:56.565Z,3.80
2018-07-10T14:15:24.852Z,3.73
2018-07-10T14:17:53.612Z,3.40
2018-07-10T14:20:21.862Z,3.30
2018-07-10T14:22:50.126Z,3.70
2018-07-10T14:25:18.378Z,3.70
2018-07-10T14:27:46.853Z,4.10
2018-07-10T14:30:15.246Z,3.77
2018-07-10T14:32:43.469Z,3.57
2018-07-10T14:35:11.809Z,3.33
2018-07-10T14:37:40.099Z,3.80
2018-07-10T14:40:08.369Z,3.87
2018-07-10T14:42:36.937Z,3.73
2018-07-10T14:45:06.161Z,3.83
2018-07-10T14:47:36.009Z,3.77
2018-07-10T14:50:04.491Z,3.60
2018-07-10T14:52:32.846Z,4.13
2018-07-10T14:55:01.140Z,3.70
2018-07-10T14:57:29.480Z,3.90
2018-07-10T14:59:57.853Z,3.60
2018-07-10T15:02:26.177Z,3.20
2018-07-10T15:04:54.526Z,4.17
2018-07-10T15:07:22.776Z,3.70
2018-07-10T15:09:51.117Z,3.87
2018-07-10T15:12:19.360Z,3.57
2018-07-10T15:14:47.665Z,4.10
2018-07-10T15:17:21.308Z,3.53
2018-07-10T15:19:49.541Z,3.70
2018-07-10T15:22:17.841Z,3.43
2018-07-10T15:24:46.186Z,3.90
2018-07-10T15:27:14.465Z,3.60
2018-07-10T15:29:42.694Z,3.57
2018-07-10T15:32:10.982Z,3.57
2018-07-10T15:34:39.226Z,3.03
2018-07-10T15:37:07.500Z,3.60
2018-07-10T15:39:35.781Z,3.30
2018-07-10T15:42:04.361Z,3.23
2018-07-10T15:44:32.629Z,3.30
2018-07-10T15:47:00.876Z,3.27
2018-07-10T15:49:29.134Z,3.40
2018-07-10T15:51:57.376Z,3.70
2018-07-10T15:54:25.613Z,3.07
2018-07-10T15:56:53.845Z,3.20
2018-07-10T15:59:22.125Z,3.30
2018-07-10T16:01:50.371Z,3.37
2018-07-10T16:04:18.621Z,3.37
2018-07-10T16:06:46.904Z,3.00
2018-07-10T16:09:17.885Z,3.17
2018-07-10T16:11:48.074Z,3.17
2018-07-10T16:14:16.350Z,2.70
2018-07-10T16:16:45.786Z,2.77
2018-07-10T16:19:15.893Z,2.83
2018-07-10T16:21:48.710Z,3.50
2018-07-10T16:24:17.054Z,3.03
2018-07-10T16:26:45.296Z,3.10
2018-07-10T16:29:16.929Z,2.90
2018-07-10T16:31:45.638Z,2.80
2018-07-10T16:34:13.871Z,3.03
2018-07-10T16:36:42.145Z,2.50
2018-07-10T16:39:10.395Z,2.93
2018-07-10T16:41:43.972Z,2.63
2018-07-10T16:44:12.248Z,2.57
2018-07-10T16:46:41.442Z,2.87
2018-07-10T16:49:15.315Z,2.87
2018-07-10T16:51:45.615Z,3.20
2018-07-10T16:54:14.410Z,2.70
2018-07-10T16:56:42.721Z,3.07
2018-07-10T16:59:11.017Z,2.40
2018-07-10T17:01:40.344Z,2.40
2018-07-10T17:04:09.235Z,2.63
2018-07-10T17:06:38.088Z,2.50
2018-07-10T17:09:06.357Z,2.60
2018-07-10T17:11:34.631Z,2.40
2018-07-10T17:14:02.926Z,2.20
2018-07-10T17:16:31.198Z,2.77
2018-07-10T17:18:59.472Z,2.47
2018-07-10T17:21:28.704Z,2.20
2018-07-10T17:24:01.577Z,2.57
2018-07-10T17:26:29.949Z,2.57
2018-07-10T17:28:59.192Z,2.17
2018-07-10T17:31:27.466Z,2.40
2018-07-10T17:33:55.701Z,2.80
2018-07-10T17:36:23.997Z,3.33
2018-07-10T17:38:52.545Z,2.43
2018-07-10T17:41:20.813Z,2.90
2018-07-10T17:43:49.312Z,2.40
2018-07-10T17:46:17.675Z,2.33
2018-07-10T17:48:45.965Z,2.53
2018-07-10T17:51:14.225Z,2.57
2018-07-10T17:53:42.515Z,2.43
2018-07-10T17:56:11.001Z,2.33
2018-07-10T17:58:39.241Z,2.67
2018-07-10T18:01:07.872Z,2.50
2018-07-10T18:03:36.185Z,2.60
2018-07-10T18:06:04.437Z,2.30
2018-07-10T18:08:32.706Z,2.30
2018-07-10T18:11:00.970Z,2.20
2018-07-10T18:13:29.209Z,2.00
2018-07-10T18:15:57.496Z,2.03
2018-07-10T18:18:25.745Z,2.10
2018-07-10T18:20:54.049Z,2.50
2018-07-10T18:23:22.380Z,2.13
2018-07-10T18:25:50.598Z,2.27
2018-07-10T18:28:19.070Z,2.00
2018-07-10T18:30:47.348Z,2.00
2018-07-10T18:33:15.732Z,1.83
2018-07-10T18:35:43.964Z,2.00
2018-07-10T18:38:12.271Z,1.90
2018-07-10T18:40:40.549Z,2.00
2018-07-10T18:43:08.822Z,2.30
2018-07-10T18:45:37.170Z,2.00
2018-07-10T18:48:05.901Z,1.97
2018-07-10T18:50:34.358Z,2.10
2018-07-10T18:53:02.592Z,2.30
2018-07-10T18:55:30.879Z,2.03
2018-07-10T18:58:18.413Z,2.30
2018-07-10T19:00:57.937Z,1.77
2018-07-10T19:03:28.686Z,1.97
2018-07-10T19:06:00.069Z,1.93
2018-07-10T19:08:28.374Z,2.27
2018-07-10T19:10:56.702Z,2.13
2018-07-10T19:13:25.020Z,2.23
2018-07-10T19:15:53.669Z,2.10
2018-07-10T19:18:22.364Z,1.70
2018-07-10T19:20:58.704Z,1.80
2018-07-10T19:23:31.618Z,1.73
2018-07-10T19:25:59.909Z,2.30
2018-07-10T19:28:28.159Z,1.93
2018-07-10T19:31:04.430Z,1.73
2018-07-10T19:33:32.704Z,2.10
2018-07-10T19:36:00.960Z,1.70
2018-07-10T19:38:29.272Z,2.00
2018-07-10T19:40:57.537Z,2.03
2018-07-10T19:43:25.791Z,2.00
2018-07-10T19:45:54.516Z,1.80
2018-07-10T19:48:23.057Z,2.00
2018-07-10T19:50:52.332Z,2.00
2018-07-10T19:53:20.956Z,2.03
2018-07-10T19:55:49.456Z,2.07
2018-07-10T19:58:29.203Z,1.80
2018-07-10T20:02:10.968Z,1.90
2018-07-10T20:04:43.482Z,1.70
2018-07-10T20:07:18.193Z,1.97
2018-07-10T20:10:35.409Z,1.93
2018-07-10T20:13:26.468Z,1.93
2018-07-10T20:15:59.224Z,1.50
2018-07-10T20:18:34.747Z,1.90
2018-07-10T20:21:08.377Z,1.83
2018-07-10T20:23:48.772Z,1.80
2018-07-10T20:26:24.789Z,1.90
2018-07-10T20:29:08.820Z,2.10
2018-07-10T20:31:41.836Z,1.80
2018-07-10T20:34:16.305Z,2.00
2018-07-10T20:36:47.888Z,1.77
2018-07-10T20:39:16.384Z,1.97
2018-07-10T20:41:45.738Z,1.70
2018-07-10T20:44:16.529Z,1.77
2018-07-10T20:46:48.777Z,1.80
2018-07-10T20:49:17.870Z,1.80
2018-07-10T20:52:04.954Z,1.80
2018-07-10T20:54:43.480Z,1.50
2018-07-10T20:57:19.345Z,1.87
2018-07-10T20:59:47.951Z,1.77
2018-07-10T21:02:30.911Z,2.23
2018-07-10T21:05:08.256Z,1.73
2018-07-10T21:07:46.701Z,1.63
2018-07-10T21:10:22.617Z,1.70
2018-07-10T21:12:59.802Z,2.07
2018-07-10T21:15:34.701Z,1.90
2018-07-10T21:18:11.906Z,1.60
2018-07-10T21:20:47.967Z,1.83
2018-07-10T21:23:27.574Z,1.70
2018-07-10T21:26:04.829Z,2.13
2018-07-10T21:28:43.033Z,1.73
2018-07-10T21:31:27.860Z,1.80
2018-07-10T21:34:15.768Z,1.80
2018-07-10T21:37:01.327Z,1.80
2018-07-10T21:41:08.882Z,1.70
2018-07-10T21:43:47.431Z,1.83
2018-07-10T21:46:27.269Z,1.70
2018-07-10T21:49:07.367Z,1.80
2018-07-10T21:51:35.620Z,1.80
2018-07-10T21:54:03.864Z,2.10
2018-07-10T21:56:32.199Z,1.70
2018-07-10T21:59:00.396Z,1.90
2018-07-10T22:02:04.755Z,2.10
2018-07-10T22:04:36.312Z,1.87
2018-07-10T22:07:06.141Z,2.00
2018-07-10T22:09:36.545Z,1.67
2018-07-10T22:12:09.510Z,1.70
2018-07-10T22:14:37.805Z,1.90
2018-07-10T22:17:24.798Z,1.60
2018-07-10T22:19:54.318Z,1.87
2018-07-10T22:22:24.740Z,1.70
2018-07-10T22:24:54.184Z,1.80
2018-07-10T22:27:23.072Z,1.90
2018-07-10T22:30:00.846Z,1.80
2018-07-10T22:32:34.438Z,1.70
2018-07-10T22:35:02.464Z,2.03
2018-07-10T22:37:30.685Z,1.70
2018-07-10T22:39:58.920Z,1.97
2018-07-10T22:42:27.196Z,1.60
2018-07-10T22:44:57.129Z,1.87
2018-07-10T22:47:42.053Z,1.93
2018-07-10T22:50:16.642Z,1.93
2018-07-10T22:52:58.382Z,2.07
2018-07-10T22:55:27.788Z,1.70
2018-07-10T22:57:59.018Z,1.90
2018-07-10T23:00:34.168Z,1.80
2018-07-10T23:03:12.616Z,1.80
2018-07-10T23:05:40.906Z,1.63
2018-07-10T23:08:09.143Z,1.97
2018-07-10T23:10:37.517Z,1.90
2018-07-10T23:13:06.101Z,2.00
2018-07-10T23:15:34.329Z,2.00
2018-07-10T23:18:02.613Z,1.90
2018-07-10T23:20:30.862Z,2.10
2018-07-10T23:22:59.117Z,1.90
2018-07-10T23:25:27.925Z,1.90
2018-07-10T23:28:05.421Z,1.80
2018-07-10T23:30:39.225Z,2.17
2018-07-10T23:33:16.785Z,1.87
2018-07-10T23:35:47.975Z,1.70
2018-07-10T23:39:07.629Z,1.70
2018-07-10T23:41:52.466Z,2.00
2018-07-10T23:44:21.432Z,1.80
2018-07-10T23:46:57.638Z,2.03
2018-07-10T23:49:26.244Z,1.97
2018-07-10T23:52:05.807Z,2.00
2018-07-10T23:54:34.105Z,1.80
2018-07-10T23:57:02.422Z,1.60
2018-07-10T23:59:30.671Z,1.63
